sensor_id;sensor_type;location;lat;lon;timestamp;pressure;altitude;pressure_sealevel;temperature;humidity
76553;BME280;65395;53.168;18.156;2024-01-15T00:00:57;98584.92;;;1.40;88.15
76553;BME280;65395;53.168;18.156;2024-01-15T00:03:44;98580.55;;;1.40;88.20
76553;BME280;65395;53.168;18.156;2024-01-15T00:06:11;98574.42;;;1.40;88.20
76553;BME280;65395;53.168;18.156;2024-01-15T00:08:38;98565.36;;;1.39;88.10
76553;BME280;65395;53.168;18.156;2024-01-15T00:11:05;98562.77;;;1.39;88.11
76553;BME280;65395;53.168;18.156;2024-01-15T00:13:32;98557.22;;;1.37;88.23
76553;BME280;65395;53.168;18.156;2024-01-15T00:15:59;98553.84;;;1.34;88.38
76553;BME280;65395;53.168;18.156;2024-01-15T00:18:26;98547.33;;;1.32;88.61
76553;BME280;65395;53.168;18.156;2024-01-15T00:20:53;98548.59;;;1.30;88.59
76553;BME280;65395;53.168;18.156;2024-01-15T00:23:20;98548.76;;;1.29;88.74
76553;BME280;65395;53.168;18.156;2024-01-15T00:25:47;98544.34;;;1.28;88.72
76553;BME280;65395;53.168;18.156;2024-01-15T00:28:14;98539.16;;;1.27;88.69
76553;BME280;65395;53.168;18.156;2024-01-15T00:30:41;98533.14;;;1.27;88.87
76553;BME280;65395;53.168;18.156;2024-01-15T00:33:08;98539.16;;;1.27;88.77
76553;BME280;65395;53.168;18.156;2024-01-15T00:35:34;98526.73;;;1.24;88.96
76553;BME280;65395;53.168;18.156;2024-01-15T00:38:02;98526.71;;;1.21;89.14
76553;BME280;65395;53.168;18.156;2024-01-15T00:40:29;98517.24;;;1.15;89.17
76553;BME280;65395;53.168;18.156;2024-01-15T00:42:56;98514.11;;;1.12;89.27
76553;BME280;65395;53.168;18.156;2024-01-15T00:45:22;98511.95;;;1.10;89.40
76553;BME280;65395;53.168;18.156;2024-01-15T00:47:49;98505.63;;;1.08;89.68
76553;BME280;65395;53.168;18.156;2024-01-15T00:50:16;98503.09;;;1.08;89.63
76553;BME280;65395;53.168;18.156;2024-01-15T00:52:44;98501.17;;;1.08;89.74
76553;BME280;65395;53.168;18.156;2024-01-15T00:55:10;98498.27;;;1.08;89.91
76553;BME280;65395;53.168;18.156;2024-01-15T00:57:37;98490.89;;;1.09;89.86
76553;BME280;65395;53.168;18.156;2024-01-15T01:00:05;98483.48;;;1.09;89.83
76553;BME280;65395;53.168;18.156;2024-01-15T01:02:33;98483.55;;;1.11;89.86
76553;BME280;65395;53.168;18.156;2024-01-15T01:05:00;98477.59;;;1.11;89.87
76553;BME280;65395;53.168;18.156;2024-01-15T01:07:26;98472.71;;;1.12;89.87
76553;BME280;65395;53.168;18.156;2024-01-15T01:09:53;98467.98;;;1.12;89.87
76553;BME280;65395;53.168;18.156;2024-01-15T01:12:20;98462.30;;;1.12;89.70
76553;BME280;65395;53.168;18.156;2024-01-15T01:14:47;98458.98;;;1.13;89.79
76553;BME280;65395;53.168;18.156;2024-01-15T01:17:14;98452.46;;;1.12;89.83
76553;BME280;65395;53.168;18.156;2024-01-15T01:19:41;98450.08;;;1.11;89.82
76553;BME280;65395;53.168;18.156;2024-01-15T01:22:08;98442.00;;;1.11;89.87
76553;BME280;65395;53.168;18.156;2024-01-15T01:24:35;98440.44;;;1.11;89.87
76553;BME280;65395;53.168;18.156;2024-01-15T01:27:02;98439.70;;;1.11;90.05
76553;BME280;65395;53.168;18.156;2024-01-15T01:29:29;98432.34;;;1.11;90.00
76553;BME280;65395;53.168;18.156;2024-01-15T01:31:55;98430.05;;;1.11;90.11
76553;BME280;65395;53.168;18.156;2024-01-15T01:34:23;98429.27;;;1.12;90.05
76553;BME280;65395;53.168;18.156;2024-01-15T01:36:50;98429.92;;;1.13;90.04
76553;BME280;65395;53.168;18.156;2024-01-15T01:39:17;98426.08;;;1.13;89.99
76553;BME280;65395;53.168;18.156;2024-01-15T01:41:43;98421.11;;;1.13;90.14
76553;BME280;65395;53.168;18.156;2024-01-15T01:44:10;98411.82;;;1.12;90.07
76553;BME280;65395;53.168;18.156;2024-01-15T01:46:38;98415.56;;;1.12;90.17
76553;BME280;65395;53.168;18.156;2024-01-15T01:49:08;98408.15;;;1.12;90.29
76553;BME280;65395;53.168;18.156;2024-01-15T01:51:35;98403.30;;;1.13;90.10
76553;BME280;65395;53.168;18.156;2024-01-15T01:54:04;98398.18;;;1.12;90.05
76553;BME280;65395;53.168;18.156;2024-01-15T01:56:33;98398.54;;;1.13;89.98
76553;BME280;65395;53.168;18.156;2024-01-15T01:59:01;98391.47;;;1.14;89.99
76553;BME280;65395;53.168;18.156;2024-01-15T02:01:31;98393.52;;;1.15;90.00
76553;BME280;65395;53.168;18.156;2024-01-15T02:03:58;98380.40;;;1.15;89.88
76553;BME280;65395;53.168;18.156;2024-01-15T02:06:25;98381.80;;;1.16;89.89
76553;BME280;65395;53.168;18.156;2024-01-15T02:08:53;98375.09;;;1.17;89.86
76553;BME280;65395;53.168;18.156;2024-01-15T02:11:20;98373.98;;;1.18;89.84
76553;BME280;65395;53.168;18.156;2024-01-15T02:13:47;98369.83;;;1.18;89.83
76553;BME280;65395;53.168;18.156;2024-01-15T02:16:14;98366.41;;;1.18;89.82
76553;BME280;65395;53.168;18.156;2024-01-15T02:18:42;98363.04;;;1.18;89.77
76553;BME280;65395;53.168;18.156;2024-01-15T02:21:10;98355.52;;;1.18;89.78
76553;BME280;65395;53.168;18.156;2024-01-15T02:23:38;98357.96;;;1.16;89.76
76553;BME280;65395;53.168;18.156;2024-01-15T02:26:05;98357.59;;;1.15;89.85
76553;BME280;65395;53.168;18.156;2024-01-15T02:28:32;98348.46;;;1.14;89.95
76553;BME280;65395;53.168;18.156;2024-01-15T02:30:59;98343.06;;;1.13;89.81
76553;BME280;65395;53.168;18.156;2024-01-15T02:33:26;98335.91;;;1.13;89.70
76553;BME280;65395;53.168;18.156;2024-01-15T02:35:53;98329.54;;;1.12;89.79
76553;BME280;65395;53.168;18.156;2024-01-15T02:38:21;98330.84;;;1.12;89.72
76553;BME280;65395;53.168;18.156;2024-01-15T02:40:49;98329.95;;;1.12;89.73
76553;BME280;65395;53.168;18.156;2024-01-15T02:43:16;98323.67;;;1.12;89.61
76553;BME280;65395;53.168;18.156;2024-01-15T02:45:45;98325.91;;;1.12;89.58
76553;BME280;65395;53.168;18.156;2024-01-15T02:48:13;98320.45;;;1.13;89.42
76553;BME280;65395;53.168;18.156;2024-01-15T02:50:40;98322.98;;;1.13;89.45
76553;BME280;65395;53.168;18.156;2024-01-15T02:53:07;98323.71;;;1.13;89.39
76553;BME280;65395;53.168;18.156;2024-01-15T02:55:34;98314.73;;;1.13;89.34
76553;BME280;65395;53.168;18.156;2024-01-15T02:58:01;98310.65;;;1.13;89.41
76553;BME280;65395;53.168;18.156;2024-01-15T03:00:27;98304.92;;;1.13;89.30
76553;BME280;65395;53.168;18.156;2024-01-15T03:02:55;98299.94;;;1.14;89.25
76553;BME280;65395;53.168;18.156;2024-01-15T03:05:22;98298.67;;;1.15;89.18
76553;BME280;65395;53.168;18.156;2024-01-15T03:07:49;98293.83;;;1.17;89.26
76553;BME280;65395;53.168;18.156;2024-01-15T03:10:16;98289.73;;;1.17;89.16
76553;BME280;65395;53.168;18.156;2024-01-15T03:12:43;98284.33;;;1.17;88.95
76553;BME280;65395;53.168;18.156;2024-01-15T03:15:10;98277.23;;;1.15;88.79
76553;BME280;65395;53.168;18.156;2024-01-15T03:17:37;98271.05;;;1.14;89.07
76553;BME280;65395;53.168;18.156;2024-01-15T03:20:04;98269.86;;;1.14;89.13
76553;BME280;65395;53.168;18.156;2024-01-15T03:22:31;98267.47;;;1.13;89.18
76553;BME280;65395;53.168;18.156;2024-01-15T03:24:58;98265.41;;;1.12;89.15
76553;BME280;65395;53.168;18.156;2024-01-15T03:27:25;98263.43;;;1.10;89.19
76553;BME280;65395;53.168;18.156;2024-01-15T03:29:52;98256.91;;;1.07;89.24
76553;BME280;65395;53.168;18.156;2024-01-15T03:32:19;98253.05;;;1.05;89.33
76553;BME280;65395;53.168;18.156;2024-01-15T03:34:46;98252.59;;;1.02;89.56
76553;BME280;65395;53.168;18.156;2024-01-15T03:37:14;98248.02;;;0.99;89.75
76553;BME280;65395;53.168;18.156;2024-01-15T03:39:41;98246.47;;;0.95;89.81
76553;BME280;65395;53.168;18.156;2024-01-15T03:42:08;98237.27;;;0.91;90.09
76553;BME280;65395;53.168;18.156;2024-01-15T03:44:34;98236.49;;;0.88;90.20
76553;BME280;65395;53.168;18.156;2024-01-15T03:47:01;98232.95;;;0.86;90.19
76553;BME280;65395;53.168;18.156;2024-01-15T03:49:28;98229.70;;;0.85;90.16
76553;BME280;65395;53.168;18.156;2024-01-15T03:51:56;98227.21;;;0.84;90.37
76553;BME280;65395;53.168;18.156;2024-01-15T03:54:22;98222.05;;;0.82;90.40
76553;BME280;65395;53.168;18.156;2024-01-15T03:56:49;98214.05;;;0.80;90.39
76553;BME280;65395;53.168;18.156;2024-01-15T03:59:16;98213.68;;;0.77;90.61
76553;BME280;65395;53.168;18.156;2024-01-15T04:01:48;98212.04;;;0.74;90.73
76553;BME280;65395;53.168;18.156;2024-01-15T04:04:17;98217.91;;;0.73;91.05
76553;BME280;65395;53.168;18.156;2024-01-15T04:06:44;98211.93;;;0.71;90.95
76553;BME280;65395;53.168;18.156;2024-01-15T04:09:13;98208.85;;;0.69;91.34
76553;BME280;65395;53.168;18.156;2024-01-15T04:11:40;98199.60;;;0.67;91.31
76553;BME280;65395;53.168;18.156;2024-01-15T04:14:07;98197.18;;;0.66;91.33
76553;BME280;65395;53.168;18.156;2024-01-15T04:16:34;98193.26;;;0.64;91.47
76553;BME280;65395;53.168;18.156;2024-01-15T04:19:01;98183.25;;;0.65;91.28
76553;BME280;65395;53.168;18.156;2024-01-15T04:21:28;98191.48;;;0.65;91.59
76553;BME280;65395;53.168;18.156;2024-01-15T04:23:55;98191.40;;;0.64;91.49
76553;BME280;65395;53.168;18.156;2024-01-15T04:26:22;98189.33;;;0.64;91.53
76553;BME280;65395;53.168;18.156;2024-01-15T04:28:49;98185.11;;;0.65;91.74
76553;BME280;65395;53.168;18.156;2024-01-15T04:31:25;98184.64;;;0.65;91.66
76553;BME280;65395;53.168;18.156;2024-01-15T04:33:53;98181.61;;;0.63;91.75
76553;BME280;65395;53.168;18.156;2024-01-15T04:36:20;98181.05;;;0.62;91.56
76553;BME280;65395;53.168;18.156;2024-01-15T04:38:47;98182.08;;;0.63;91.42
76553;BME280;65395;53.168;18.156;2024-01-15T04:41:16;98176.02;;;0.62;91.43
76553;BME280;65395;53.168;18.156;2024-01-15T04:43:43;98165.89;;;0.60;91.14
76553;BME280;65395;53.168;18.156;2024-01-15T04:46:10;98159.12;;;0.59;90.81
76553;BME280;65395;53.168;18.156;2024-01-15T04:48:37;98167.84;;;0.57;90.73
76553;BME280;65395;53.168;18.156;2024-01-15T04:51:05;98152.83;;;0.56;90.67
76553;BME280;65395;53.168;18.156;2024-01-15T04:53:34;98157.98;;;0.56;90.48
76553;BME280;65395;53.168;18.156;2024-01-15T04:56:01;98154.58;;;0.53;90.24
76553;BME280;65395;53.168;18.156;2024-01-15T04:58:28;98154.81;;;0.51;90.34
76553;BME280;65395;53.168;18.156;2024-01-15T05:00:55;98156.85;;;0.50;90.29
76553;BME280;65395;53.168;18.156;2024-01-15T05:03:22;98160.56;;;0.49;90.46
76553;BME280;65395;53.168;18.156;2024-01-15T05:05:49;98158.63;;;0.49;90.49
76553;BME280;65395;53.168;18.156;2024-01-15T05:08:16;98158.50;;;0.51;90.70
76553;BME280;65395;53.168;18.156;2024-01-15T05:10:43;98165.21;;;0.53;90.73
76553;BME280;65395;53.168;18.156;2024-01-15T05:13:10;98165.37;;;0.53;90.55
76553;BME280;65395;53.168;18.156;2024-01-15T05:15:36;98165.16;;;0.53;90.41
76553;BME280;65395;53.168;18.156;2024-01-15T05:18:03;98162.91;;;0.50;90.23
76553;BME280;65395;53.168;18.156;2024-01-15T05:20:30;98165.11;;;0.49;90.27
76553;BME280;65395;53.168;18.156;2024-01-15T05:22:57;98167.02;;;0.46;90.01
76553;BME280;65395;53.168;18.156;2024-01-15T05:25:24;98174.43;;;0.45;90.02
76553;BME280;65395;53.168;18.156;2024-01-15T05:27:51;98171.40;;;0.44;89.93
76553;BME280;65395;53.168;18.156;2024-01-15T05:30:18;98169.59;;;0.39;89.62
76553;BME280;65395;53.168;18.156;2024-01-15T05:32:45;98168.13;;;0.36;89.47
76553;BME280;65395;53.168;18.156;2024-01-15T05:35:12;98167.46;;;0.35;89.22
76553;BME280;65395;53.168;18.156;2024-01-15T05:37:44;98170.27;;;0.36;89.05
76553;BME280;65395;53.168;18.156;2024-01-15T05:40:12;98171.48;;;0.37;89.11
76553;BME280;65395;53.168;18.156;2024-01-15T05:42:40;98172.58;;;0.36;88.86
76553;BME280;65395;53.168;18.156;2024-01-15T05:45:08;98170.54;;;0.38;88.98
76553;BME280;65395;53.168;18.156;2024-01-15T05:47:35;98164.00;;;0.39;88.92
76553;BME280;65395;53.168;18.156;2024-01-15T05:50:02;98163.48;;;0.39;88.74
76553;BME280;65395;53.168;18.156;2024-01-15T05:52:29;98158.54;;;0.39;88.76
76553;BME280;65395;53.168;18.156;2024-01-15T05:54:56;98156.83;;;0.40;88.62
76553;BME280;65395;53.168;18.156;2024-01-15T05:57:23;98156.05;;;0.41;88.70
76553;BME280;65395;53.168;18.156;2024-01-15T05:59:50;98152.00;;;0.41;88.64
76553;BME280;65395;53.168;18.156;2024-01-15T06:02:17;98151.23;;;0.41;88.51
76553;BME280;65395;53.168;18.156;2024-01-15T06:04:43;98151.94;;;0.39;88.56
76553;BME280;65395;53.168;18.156;2024-01-15T06:07:11;98149.73;;;0.39;88.71
76553;BME280;65395;53.168;18.156;2024-01-15T06:09:37;98150.30;;;0.40;88.60
76553;BME280;65395;53.168;18.156;2024-01-15T06:12:06;98142.63;;;0.41;88.62
76553;BME280;65395;53.168;18.156;2024-01-15T06:14:33;98135.77;;;0.41;88.56
76553;BME280;65395;53.168;18.156;2024-01-15T06:17:00;98141.77;;;0.39;88.63
76553;BME280;65395;53.168;18.156;2024-01-15T06:19:27;98145.05;;;0.37;88.61
76553;BME280;65395;53.168;18.156;2024-01-15T06:21:54;98148.61;;;0.35;88.46
76553;BME280;65395;53.168;18.156;2024-01-15T06:24:21;98141.98;;;0.35;88.53
76553;BME280;65395;53.168;18.156;2024-01-15T06:26:48;98138.02;;;0.35;88.66
76553;BME280;65395;53.168;18.156;2024-01-15T06:29:15;98145.96;;;0.36;88.60
76553;BME280;65395;53.168;18.156;2024-01-15T06:31:42;98136.84;;;0.35;88.54
76553;BME280;65395;53.168;18.156;2024-01-15T06:34:09;98142.34;;;0.36;88.58
76553;BME280;65395;53.168;18.156;2024-01-15T06:36:35;98137.00;;;0.35;88.80
76553;BME280;65395;53.168;18.156;2024-01-15T06:39:03;98138.74;;;0.37;88.90
76553;BME280;65395;53.168;18.156;2024-01-15T06:41:30;98138.31;;;0.38;88.79
76553;BME280;65395;53.168;18.156;2024-01-15T06:43:57;98136.53;;;0.39;89.10
76553;BME280;65395;53.168;18.156;2024-01-15T06:46:25;98132.38;;;0.40;88.97
76553;BME280;65395;53.168;18.156;2024-01-15T06:48:52;98131.27;;;0.41;88.73
76553;BME280;65395;53.168;18.156;2024-01-15T06:51:18;98128.85;;;0.43;88.76
76553;BME280;65395;53.168;18.156;2024-01-15T06:53:45;98126.71;;;0.44;88.85
76553;BME280;65395;53.168;18.156;2024-01-15T06:56:12;98130.11;;;0.46;88.73
76553;BME280;65395;53.168;18.156;2024-01-15T06:58:39;98123.82;;;0.48;88.50
76553;BME280;65395;53.168;18.156;2024-01-15T07:01:06;98121.55;;;0.51;88.50
76553;BME280;65395;53.168;18.156;2024-01-15T07:03:34;98119.30;;;0.52;88.36
76553;BME280;65395;53.168;18.156;2024-01-15T07:06:01;98124.53;;;0.52;88.10
76553;BME280;65395;53.168;18.156;2024-01-15T07:08:28;98122.97;;;0.53;88.06
76553;BME280;65395;53.168;18.156;2024-01-15T07:10:55;98114.83;;;0.53;88.00
76553;BME280;65395;53.168;18.156;2024-01-15T07:13:22;98116.56;;;0.55;88.08
76553;BME280;65395;53.168;18.156;2024-01-15T07:15:49;98116.02;;;0.56;87.93
76553;BME280;65395;53.168;18.156;2024-01-15T07:18:16;98117.72;;;0.57;87.90
76553;BME280;65395;53.168;18.156;2024-01-15T07:20:43;98125.79;;;0.59;87.77
76553;BME280;65395;53.168;18.156;2024-01-15T07:23:10;98124.71;;;0.60;87.79
76553;BME280;65395;53.168;18.156;2024-01-15T07:25:37;98123.08;;;0.63;87.69
76553;BME280;65395;53.168;18.156;2024-01-15T07:28:04;98118.69;;;0.62;87.72
76553;BME280;65395;53.168;18.156;2024-01-15T07:30:32;98123.13;;;0.63;88.00
76553;BME280;65395;53.168;18.156;2024-01-15T07:32:58;98125.91;;;0.64;88.33
76553;BME280;65395;53.168;18.156;2024-01-15T07:35:25;98130.59;;;0.64;88.03
76553;BME280;65395;53.168;18.156;2024-01-15T07:37:52;98132.35;;;0.64;88.21
76553;BME280;65395;53.168;18.156;2024-01-15T07:40:19;98130.59;;;0.63;88.44
76553;BME280;65395;53.168;18.156;2024-01-15T07:42:46;98128.98;;;0.63;88.67
76553;BME280;65395;53.168;18.156;2024-01-15T07:45:14;98130.06;;;0.63;88.78
76553;BME280;65395;53.168;18.156;2024-01-15T07:47:41;98128.95;;;0.63;88.87
76553;BME280;65395;53.168;18.156;2024-01-15T07:50:08;98129.19;;;0.63;88.80
76553;BME280;65395;53.168;18.156;2024-01-15T07:52:35;98124.21;;;0.64;88.92
76553;BME280;65395;53.168;18.156;2024-01-15T07:55:02;98118.27;;;0.65;88.69
76553;BME280;65395;53.168;18.156;2024-01-15T07:57:31;98121.92;;;0.67;88.75
76553;BME280;65395;53.168;18.156;2024-01-15T07:59:59;98116.35;;;0.69;88.60
76553;BME280;65395;53.168;18.156;2024-01-15T08:02:25;98117.23;;;0.73;88.30
76553;BME280;65395;53.168;18.156;2024-01-15T08:04:53;98114.39;;;0.75;88.26
76553;BME280;65395;53.168;18.156;2024-01-15T08:07:19;98118.24;;;0.78;88.12
76553;BME280;65395;53.168;18.156;2024-01-15T08:09:46;98116.77;;;0.79;88.00
76553;BME280;65395;53.168;18.156;2024-01-15T08:12:14;98118.13;;;0.83;87.88
76553;BME280;65395;53.168;18.156;2024-01-15T08:14:41;98107.61;;;0.85;87.41
76553;BME280;65395;53.168;18.156;2024-01-15T08:17:08;98117.60;;;0.86;87.30
76553;BME280;65395;53.168;18.156;2024-01-15T08:19:35;98110.28;;;0.86;87.13
76553;BME280;65395;53.168;18.156;2024-01-15T08:22:02;98112.05;;;0.83;87.15
76553;BME280;65395;53.168;18.156;2024-01-15T08:24:29;98114.93;;;0.84;87.09
76553;BME280;65395;53.168;18.156;2024-01-15T08:26:58;98111.80;;;0.89;87.17
76553;BME280;65395;53.168;18.156;2024-01-15T08:29:25;98106.95;;;0.94;87.00
76553;BME280;65395;53.168;18.156;2024-01-15T08:31:52;98108.48;;;0.96;86.82
76553;BME280;65395;53.168;18.156;2024-01-15T08:34:19;98105.04;;;0.99;86.84
76553;BME280;65395;53.168;18.156;2024-01-15T08:36:46;98100.30;;;1.06;86.62
76553;BME280;65395;53.168;18.156;2024-01-15T08:39:13;98099.80;;;1.13;86.70
76553;BME280;65395;53.168;18.156;2024-01-15T08:41:40;98102.95;;;1.16;85.99
76553;BME280;65395;53.168;18.156;2024-01-15T08:44:07;98083.88;;;1.12;86.14
76553;BME280;65395;53.168;18.156;2024-01-15T08:46:34;98102.14;;;1.27;85.85
76553;BME280;65395;53.168;18.156;2024-01-15T08:49:00;98100.47;;;1.27;85.41
76553;BME280;65395;53.168;18.156;2024-01-15T08:51:27;98101.91;;;1.29;85.25
76553;BME280;65395;53.168;18.156;2024-01-15T08:53:56;98095.70;;;1.32;85.27
76553;BME280;65395;53.168;18.156;2024-01-15T08:56:24;98098.80;;;1.37;84.94
76553;BME280;65395;53.168;18.156;2024-01-15T08:58:51;98092.02;;;1.41;84.75
76553;BME280;65395;53.168;18.156;2024-01-15T09:01:18;98102.69;;;1.42;83.68
76553;BME280;65395;53.168;18.156;2024-01-15T09:03:45;98103.84;;;1.42;83.37
76553;BME280;65395;53.168;18.156;2024-01-15T09:06:14;98099.18;;;1.41;83.63
76553;BME280;65395;53.168;18.156;2024-01-15T09:08:41;98100.27;;;1.41;83.67
76553;BME280;65395;53.168;18.156;2024-01-15T09:11:08;98095.28;;;1.42;83.28
76553;BME280;65395;53.168;18.156;2024-01-15T09:13:35;98091.95;;;1.42;83.23
76553;BME280;65395;53.168;18.156;2024-01-15T09:16:02;98095.33;;;1.48;83.70
76553;BME280;65395;53.168;18.156;2024-01-15T09:18:29;98096.94;;;1.53;83.58
76553;BME280;65395;53.168;18.156;2024-01-15T09:20:57;98089.42;;;1.50;83.59
76553;BME280;65395;53.168;18.156;2024-01-15T09:23:24;98087.45;;;1.46;84.00
76553;BME280;65395;53.168;18.156;2024-01-15T09:25:50;98082.73;;;1.44;84.00
76553;BME280;65395;53.168;18.156;2024-01-15T09:28:19;98086.30;;;1.42;84.11
76553;BME280;65395;53.168;18.156;2024-01-15T09:30:46;98077.87;;;1.37;83.97
76553;BME280;65395;53.168;18.156;2024-01-15T09:33:13;98073.94;;;1.34;84.42
76553;BME280;65395;53.168;18.156;2024-01-15T09:35:40;98072.66;;;1.35;84.73
76553;BME280;65395;53.168;18.156;2024-01-15T09:38:07;98071.60;;;1.36;84.82
76553;BME280;65395;53.168;18.156;2024-01-15T09:40:38;98058.73;;;1.31;84.77
76553;BME280;65395;53.168;18.156;2024-01-15T09:43:05;98065.86;;;1.41;84.74
76553;BME280;65395;53.168;18.156;2024-01-15T09:45:32;98067.38;;;1.43;84.45
76553;BME280;65395;53.168;18.156;2024-01-15T09:47:59;98063.11;;;1.43;84.34
76553;BME280;65395;53.168;18.156;2024-01-15T09:50:26;98054.41;;;1.47;84.39
76553;BME280;65395;53.168;18.156;2024-01-15T09:52:54;98056.89;;;1.57;84.24
76553;BME280;65395;53.168;18.156;2024-01-15T09:55:23;98073.40;;;1.68;83.53
76553;BME280;65395;53.168;18.156;2024-01-15T09:57:52;98061.63;;;1.72;83.76
76553;BME280;65395;53.168;18.156;2024-01-15T10:00:22;98078.95;;;1.73;81.99
76553;BME280;65395;53.168;18.156;2024-01-15T10:02:49;98073.89;;;1.70;82.15
76553;BME280;65395;53.168;18.156;2024-01-15T10:05:16;98073.42;;;1.66;81.70
76553;BME280;65395;53.168;18.156;2024-01-15T10:07:45;98086.41;;;1.60;82.40
76553;BME280;65395;53.168;18.156;2024-01-15T10:10:12;98089.00;;;1.47;82.40
76553;BME280;65395;53.168;18.156;2024-01-15T10:12:39;98083.63;;;1.29;83.90
76553;BME280;65395;53.168;18.156;2024-01-15T10:15:09;98101.52;;;1.09;85.23
76553;BME280;65395;53.168;18.156;2024-01-15T10:17:38;98090.89;;;0.96;86.20
76553;BME280;65395;53.168;18.156;2024-01-15T10:20:10;98089.84;;;0.90;86.68
76553;BME280;65395;53.168;18.156;2024-01-15T10:22:45;98090.27;;;0.92;86.79
76553;BME280;65395;53.168;18.156;2024-01-15T10:25:14;98082.60;;;1.01;86.44
76553;BME280;65395;53.168;18.156;2024-01-15T10:27:41;98075.09;;;1.12;86.22
76553;BME280;65395;53.168;18.156;2024-01-15T10:30:10;98079.54;;;1.25;85.93
76553;BME280;65395;53.168;18.156;2024-01-15T10:32:38;98080.16;;;1.39;85.27
76553;BME280;65395;53.168;18.156;2024-01-15T10:35:07;98079.67;;;1.52;83.88
76553;BME280;65395;53.168;18.156;2024-01-15T10:37:34;98087.63;;;1.57;83.58
76553;BME280;65395;53.168;18.156;2024-01-15T10:40:03;98073.94;;;1.58;83.30
76553;BME280;65395;53.168;18.156;2024-01-15T10:42:31;98064.86;;;1.61;83.28
76553;BME280;65395;53.168;18.156;2024-01-15T10:44:59;98069.19;;;1.63;81.50
76553;BME280;65395;53.168;18.156;2024-01-15T10:47:26;98061.70;;;1.66;81.36
76553;BME280;65395;53.168;18.156;2024-01-15T10:49:53;98069.93;;;1.72;81.76
76553;BME280;65395;53.168;18.156;2024-01-15T10:52:21;98070.78;;;1.74;81.54
76553;BME280;65395;53.168;18.156;2024-01-15T10:54:49;98067.73;;;1.74;81.91
76553;BME280;65395;53.168;18.156;2024-01-15T10:57:16;98071.19;;;1.72;81.45
76553;BME280;65395;53.168;18.156;2024-01-15T10:59:43;98071.59;;;1.72;81.32
76553;BME280;65395;53.168;18.156;2024-01-15T11:02:13;98063.65;;;1.82;81.38
76553;BME280;65395;53.168;18.156;2024-01-15T11:04:40;98061.72;;;1.91;81.95
76553;BME280;65395;53.168;18.156;2024-01-15T11:07:07;98071.08;;;1.95;81.88
76553;BME280;65395;53.168;18.156;2024-01-15T11:09:35;98061.73;;;1.97;81.74
76553;BME280;65395;53.168;18.156;2024-01-15T11:12:11;98064.85;;;1.97;81.26
76553;BME280;65395;53.168;18.156;2024-01-15T11:14:40;98071.36;;;1.96;81.19
76553;BME280;65395;53.168;18.156;2024-01-15T11:17:10;98070.45;;;1.88;81.35
76553;BME280;65395;53.168;18.156;2024-01-15T11:19:43;98072.48;;;1.75;82.42
76553;BME280;65395;53.168;18.156;2024-01-15T11:25:13;98077.15;;;1.42;84.29
76553;BME280;65395;53.168;18.156;2024-01-15T11:27:42;98074.44;;;1.31;84.97
76553;BME280;65395;53.168;18.156;2024-01-15T11:30:11;98070.61;;;1.19;85.48
76553;BME280;65395;53.168;18.156;2024-01-15T11:32:39;98076.44;;;1.10;85.73
76553;BME280;65395;53.168;18.156;2024-01-15T11:35:10;98065.30;;;1.02;85.95
76553;BME280;65395;53.168;18.156;2024-01-15T11:37:58;98072.92;;;0.96;86.48
76553;BME280;65395;53.168;18.156;2024-01-15T11:40:37;98072.64;;;0.89;86.94
76553;BME280;65395;53.168;18.156;2024-01-15T11:43:06;98071.64;;;0.90;87.39
76553;BME280;65395;53.168;18.156;2024-01-15T11:45:35;98060.39;;;0.96;87.30
76553;BME280;65395;53.168;18.156;2024-01-15T11:48:10;98068.34;;;1.04;87.26
76553;BME280;65395;53.168;18.156;2024-01-15T11:50:41;98069.85;;;1.06;86.93
76553;BME280;65395;53.168;18.156;2024-01-15T11:53:26;98068.17;;;1.04;86.63
76553;BME280;65395;53.168;18.156;2024-01-15T11:55:58;98061.05;;;1.14;86.40
76553;BME280;65395;53.168;18.156;2024-01-15T11:58:25;98049.00;;;1.24;86.02
76553;BME280;65395;53.168;18.156;2024-01-15T12:00:52;98053.29;;;1.33;85.58
76553;BME280;65395;53.168;18.156;2024-01-15T12:03:22;98046.56;;;1.41;82.09
76553;BME280;65395;53.168;18.156;2024-01-15T12:05:49;98063.80;;;1.43;81.53
76553;BME280;65395;53.168;18.156;2024-01-15T12:08:21;98057.82;;;1.44;82.62
76553;BME280;65395;53.168;18.156;2024-01-15T12:10:48;98064.90;;;1.42;81.28
76553;BME280;65395;53.168;18.156;2024-01-15T12:13:16;98074.48;;;1.40;81.17
76553;BME280;65395;53.168;18.156;2024-01-15T12:15:46;98097.48;;;1.38;81.09
76553;BME280;65395;53.168;18.156;2024-01-15T12:18:16;98132.23;;;1.17;80.89
76553;BME280;65395;53.168;18.156;2024-01-15T12:20:44;98109.63;;;0.97;81.01
76553;BME280;65395;53.168;18.156;2024-01-15T12:23:13;98102.45;;;0.84;79.89
76553;BME280;65395;53.168;18.156;2024-01-15T12:25:40;98102.52;;;0.83;79.59
76553;BME280;65395;53.168;18.156;2024-01-15T12:28:08;98092.38;;;0.80;79.76
76553;BME280;65395;53.168;18.156;2024-01-15T12:30:35;98096.72;;;0.74;79.77
76553;BME280;65395;53.168;18.156;2024-01-15T12:33:04;98085.45;;;0.69;80.15
76553;BME280;65395;53.168;18.156;2024-01-15T12:35:33;98090.63;;;0.66;80.19
76553;BME280;65395;53.168;18.156;2024-01-15T12:38:00;98096.70;;;0.69;80.09
76553;BME280;65395;53.168;18.156;2024-01-15T12:40:31;98089.67;;;0.74;79.46
76553;BME280;65395;53.168;18.156;2024-01-15T12:43:00;98086.64;;;0.80;79.52
76553;BME280;65395;53.168;18.156;2024-01-15T12:45:27;98089.66;;;0.85;78.99
76553;BME280;65395;53.168;18.156;2024-01-15T12:47:54;98093.73;;;0.91;78.93
76553;BME280;65395;53.168;18.156;2024-01-15T12:50:25;98094.45;;;0.97;79.24
76553;BME280;65395;53.168;18.156;2024-01-15T12:52:53;98096.19;;;1.04;78.48
76553;BME280;65395;53.168;18.156;2024-01-15T12:55:20;98095.16;;;1.13;79.14
76553;BME280;65395;53.168;18.156;2024-01-15T12:57:47;98089.95;;;1.26;77.74
76553;BME280;65395;53.168;18.156;2024-01-15T13:00:16;98094.94;;;1.37;77.89
76553;BME280;65395;53.168;18.156;2024-01-15T13:02:43;98098.23;;;1.47;78.38
76553;BME280;65395;53.168;18.156;2024-01-15T13:05:10;98100.55;;;1.57;78.22